createdAt,value
2023-03-15T00:02:25.629Z,1.48
2023-03-15T00:05:13.081Z,1.90
2023-03-15T00:07:59.469Z,1.67
2023-03-15T00:10:46.462Z,2.30
2023-03-15T00:13:32.864Z,2.25
2023-03-15T00:16:18.592Z,1.90
2023-03-15T00:19:04.538Z,2.10
2023-03-15T00:21:50.525Z,2.30
2023-03-15T00:24:36.003Z,1.60
2023-03-15T00:27:22.123Z,1.80
2023-03-15T00:30:08.663Z,2.42
2023-03-15T00:32:54.444Z,1.52
2023-03-15T00:35:42.433Z,2.08
2023-03-15T00:38:28.267Z,1.75
2023-03-15T00:41:16.510Z,2.47
2023-03-15T00:44:02.067Z,3.22
2023-03-15T00:46:47.604Z,2.05
2023-03-15T00:49:33.762Z,1.92
2023-03-15T00:52:19.316Z,1.90
2023-03-15T00:55:05.732Z,2.10
2023-03-15T00:57:51.537Z,1.90
2023-03-15T01:00:38.290Z,2.00
2023-03-15T01:03:24.144Z,2.70
2023-03-15T01:06:13.194Z,2.45
2023-03-15T01:08:58.984Z,2.20
2023-03-15T01:11:44.565Z,2.15
2023-03-15T01:14:30.373Z,2.38
2023-03-15T01:17:15.813Z,2.22
2023-03-15T01:20:01.318Z,2.15
2023-03-15T01:22:46.801Z,2.17
2023-03-15T01:25:32.110Z,1.98
2023-03-15T01:28:18.028Z,2.38
2023-03-15T01:31:03.968Z,2.67
2023-03-15T01:33:49.468Z,2.38
2023-03-15T01:36:35.049Z,2.03
2023-03-15T01:39:20.419Z,2.58
2023-03-15T01:42:05.903Z,2.05
2023-03-15T01:45:02.460Z,2.30
2023-03-15T01:47:47.815Z,2.67
2023-03-15T01:50:34.000Z,4.10
2023-03-15T01:53:20.095Z,2.03
2023-03-15T01:56:06.755Z,2.50
2023-03-15T01:58:55.345Z,2.72
2023-03-15T02:01:45.882Z,2.95
2023-03-15T02:04:37.092Z,2.58
2023-03-15T02:07:26.442Z,2.30
2023-03-15T02:10:16.277Z,3.25
2023-03-15T02:13:02.527Z,2.03
2023-03-15T02:15:48.746Z,2.55
2023-03-15T02:18:37.032Z,3.28
2023-03-15T02:21:47.747Z,4.05
2023-03-15T02:24:59.044Z,3.00
2023-03-15T02:27:45.121Z,2.30
2023-03-15T02:30:30.767Z,2.83
2023-03-15T02:33:42.006Z,2.45
2023-03-15T02:36:32.099Z,2.53
2023-03-15T02:39:22.532Z,2.42
2023-03-15T02:42:08.157Z,3.70
2023-03-15T02:44:54.701Z,2.20
2023-03-15T02:47:40.491Z,3.03
2023-03-15T02:50:25.648Z,2.53
2023-03-15T02:53:12.389Z,2.70
2023-03-15T02:55:58.415Z,2.72
2023-03-15T02:58:47.125Z,2.35
2023-03-15T03:01:33.160Z,2.80
2023-03-15T03:04:18.962Z,2.75
2023-03-15T03:07:05.136Z,3.05
2023-03-15T03:09:50.828Z,2.83
2023-03-15T03:12:36.467Z,3.08
2023-03-15T03:15:21.982Z,2.42
2023-03-15T03:18:07.993Z,2.83
2023-03-15T03:20:57.251Z,3.75
2023-03-15T03:23:46.252Z,3.40
2023-03-15T03:26:32.826Z,2.67
2023-03-15T03:29:18.552Z,3.25
2023-03-15T03:32:05.076Z,3.00
2023-03-15T03:34:50.628Z,2.70
2023-03-15T03:37:36.017Z,3.53
2023-03-15T03:40:21.774Z,3.30
2023-03-15T03:43:08.648Z,3.25
2023-03-15T03:45:53.908Z,2.83
2023-03-15T03:48:39.477Z,3.10
2023-03-15T03:51:24.980Z,3.15
2023-03-15T03:54:10.574Z,2.95
2023-03-15T03:56:56.162Z,3.15
2023-03-15T03:59:41.719Z,3.60
2023-03-15T04:02:27.173Z,4.75
2023-03-15T04:05:13.370Z,4.05
2023-03-15T04:07:59.146Z,3.78
2023-03-15T04:10:44.660Z,3.38
2023-03-15T04:13:31.261Z,3.55
2023-03-15T04:16:16.605Z,3.72
2023-03-15T04:19:02.306Z,4.03
2023-03-15T04:21:47.875Z,4.20
2023-03-15T04:24:36.947Z,3.67
2023-03-15T04:27:22.760Z,4.20
2023-03-15T04:30:08.963Z,4.00
2023-03-15T04:33:03.483Z,3.85
2023-03-15T04:35:49.136Z,4.03
2023-03-15T04:38:35.620Z,4.18
2023-03-15T04:41:21.048Z,4.82
2023-03-15T04:44:06.616Z,4.68
2023-03-15T04:46:52.509Z,4.05
2023-03-15T04:49:38.385Z,4.88
2023-03-15T04:52:23.863Z,4.85
2023-03-15T04:55:10.164Z,4.07
2023-03-15T04:57:56.770Z,6.05
2023-03-15T05:00:42.448Z,4.50
2023-03-15T05:03:27.780Z,4.30
2023-03-15T05:06:13.406Z,4.57
2023-03-15T05:08:59.017Z,4.30
2023-03-15T05:11:46.581Z,4.03
2023-03-15T05:14:32.988Z,3.72
2023-03-15T05:17:18.227Z,4.65
2023-03-15T05:20:21.688Z,4.78
2023-03-15T05:23:07.278Z,4.53
2023-03-15T05:25:54.116Z,5.05
2023-03-15T05:28:40.095Z,4.65
2023-03-15T05:31:25.871Z,4.65
2023-03-15T05:34:12.294Z,5.05
2023-03-15T05:36:59.577Z,4.95
2023-03-15T05:39:44.860Z,4.57
2023-03-15T05:42:30.583Z,6.03
2023-03-15T05:45:16.315Z,5.38
2023-03-15T05:48:01.886Z,5.53
2023-03-15T05:50:47.573Z,4.60
2023-03-15T05:53:33.481Z,5.43
2023-03-15T05:56:19.179Z,5.38
2023-03-15T05:59:05.085Z,4.78
2023-03-15T06:01:50.462Z,5.93
2023-03-15T06:04:37.979Z,6.05
2023-03-15T06:07:23.216Z,6.65
2023-03-15T06:10:09.252Z,7.15
2023-03-15T06:12:55.462Z,7.47
2023-03-15T06:15:41.259Z,8.02
2023-03-15T06:18:26.987Z,7.55
2023-03-15T06:21:12.391Z,7.95
2023-03-15T06:23:57.836Z,8.27
2023-03-15T06:26:43.981Z,7.40
2023-03-15T06:29:30.225Z,7.75
2023-03-15T06:32:15.833Z,6.90
2023-03-15T06:35:01.356Z,6.93
2023-03-15T06:37:46.870Z,7.63
2023-03-15T06:40:32.655Z,7.00
2023-03-15T06:43:19.758Z,7.35
2023-03-15T06:46:05.516Z,7.38
2023-03-15T06:48:51.254Z,7.53
2023-03-15T06:51:36.961Z,7.32
2023-03-15T06:54:23.329Z,9.65
2023-03-15T06:57:09.686Z,7.93
2023-03-15T06:59:55.315Z,6.78
2023-03-15T07:02:40.930Z,7.35
2023-03-15T07:05:26.833Z,7.63
2023-03-15T07:08:12.461Z,7.15
2023-03-15T07:10:58.348Z,8.15
2023-03-15T07:13:45.036Z,7.10
2023-03-15T07:16:30.831Z,7.07
2023-03-15T07:19:16.585Z,6.82
2023-03-15T07:22:01.924Z,6.65
2023-03-15T07:24:47.456Z,7.82
2023-03-15T07:27:33.700Z,7.25
2023-03-15T07:30:20.283Z,7.57
2023-03-15T07:33:06.050Z,5.82
2023-03-15T07:35:53.672Z,6.50
2023-03-15T07:38:41.332Z,6.55
2023-03-15T07:41:28.021Z,7.03
2023-03-15T07:44:13.214Z,5.35
2023-03-15T07:46:59.004Z,6.40
2023-03-15T07:49:44.588Z,5.70
2023-03-15T07:52:29.994Z,5.97
2023-03-15T07:55:15.462Z,6.35
2023-03-15T07:58:01.881Z,6.28
2023-03-15T08:00:47.272Z,6.03
2023-03-15T08:03:33.125Z,5.90
2023-03-15T08:06:18.864Z,4.95
2023-03-15T08:09:05.834Z,5.60
2023-03-15T08:11:51.644Z,5.82
2023-03-15T08:14:37.754Z,5.28
2023-03-15T08:17:23.738Z,4.72
2023-03-15T08:20:11.738Z,4.45
2023-03-15T08:22:57.456Z,4.43
2023-03-15T08:25:44.190Z,4.30
2023-03-15T08:28:29.381Z,4.18
2023-03-15T08:31:15.989Z,4.03
2023-03-15T08:34:01.883Z,3.78
2023-03-15T08:36:48.402Z,4.38
2023-03-15T08:39:39.513Z,3.83
2023-03-15T08:42:25.144Z,3.97
2023-03-15T08:45:11.415Z,3.70
2023-03-15T08:47:58.920Z,3.50
2023-03-15T08:50:44.723Z,2.70
2023-03-15T08:53:31.507Z,2.33
2023-03-15T08:56:17.099Z,2.30
2023-03-15T08:59:03.005Z,2.33
2023-03-15T09:01:48.780Z,2.60
2023-03-15T09:04:34.204Z,2.60
2023-03-15T09:07:20.731Z,2.13
2023-03-15T09:10:06.763Z,2.05
2023-03-15T09:12:54.045Z,1.67
2023-03-15T09:15:39.508Z,2.28
2023-03-15T09:18:25.452Z,2.17
2023-03-15T09:21:11.763Z,2.00
2023-03-15T09:23:57.171Z,1.58
2023-03-15T09:26:42.407Z,1.77
2023-03-15T09:29:28.134Z,1.70
2023-03-15T09:32:13.519Z,2.10
2023-03-15T09:34:59.092Z,1.80
2023-03-15T09:37:44.881Z,1.70
2023-03-15T09:40:33.534Z,1.75
2023-03-15T09:43:44.745Z,2.72
2023-03-15T09:46:32.778Z,2.33
2023-03-15T09:49:39.638Z,2.60
2023-03-15T09:52:45.227Z,3.00
2023-03-15T09:55:30.946Z,3.45
2023-03-15T09:58:26.873Z,2.17
2023-03-15T10:01:14.132Z,1.92
2023-03-15T10:04:08.236Z,1.27
2023-03-15T10:06:59.926Z,1.50
2023-03-15T10:09:46.015Z,1.90
2023-03-15T10:12:42.082Z,1.50
2023-03-15T10:15:44.429Z,1.35
2023-03-15T10:18:42.963Z,2.10
2023-03-15T10:21:45.387Z,1.40
2023-03-15T10:24:46.719Z,1.23
2023-03-15T10:27:54.244Z,1.80
2023-03-15T10:30:46.335Z,1.27
2023-03-15T10:33:34.670Z,0.85
2023-03-15T10:36:24.786Z,1.00
2023-03-15T10:39:12.951Z,0.90
2023-03-15T10:41:58.208Z,1.02
2023-03-15T10:44:43.817Z,1.80
2023-03-15T10:47:29.166Z,1.80
2023-03-15T10:50:33.728Z,1.50
2023-03-15T10:53:25.594Z,1.33
2023-03-15T10:56:21.041Z,1.50
2023-03-15T10:59:19.870Z,1.65
2023-03-15T11:02:21.045Z,1.52
2023-03-15T11:05:16.318Z,1.42
2023-03-15T11:08:01.688Z,1.38
2023-03-15T11:10:59.025Z,1.15
2023-03-15T11:13:59.803Z,1.17
2023-03-15T11:16:51.166Z,1.42
2023-03-15T11:19:42.321Z,1.02
2023-03-15T11:22:28.254Z,1.08
2023-03-15T11:25:14.829Z,0.93
2023-03-15T11:28:01.421Z,0.95
2023-03-15T11:30:48.692Z,0.98
2023-03-15T11:33:46.227Z,0.95
2023-03-15T11:36:34.733Z,0.77
2023-03-15T11:39:32.650Z,0.85
2023-03-15T11:42:35.828Z,1.00
2023-03-15T11:45:34.408Z,1.05
2023-03-15T11:48:26.543Z,0.95
2023-03-15T11:51:13.752Z,1.25
2023-03-15T11:54:14.731Z,1.17
2023-03-15T11:57:27.928Z,1.40
2023-03-15T12:00:34.353Z,1.15
2023-03-15T12:03:34.390Z,1.55
2023-03-15T12:06:22.566Z,1.65
2023-03-15T12:09:32.762Z,1.13
2023-03-15T12:12:24.412Z,1.58
2023-03-15T12:15:19.279Z,1.05
2023-03-15T12:18:06.971Z,0.90
2023-03-15T12:21:06.503Z,1.08
2023-03-15T12:24:04.829Z,1.17
2023-03-15T12:26:59.306Z,0.82
2023-03-15T12:29:47.006Z,1.05
2023-03-15T12:32:46.699Z,1.15
2023-03-15T12:35:39.934Z,1.20
2023-03-15T12:38:25.500Z,1.08
2023-03-15T12:41:37.780Z,0.90
2023-03-15T12:44:32.654Z,1.75
2023-03-15T12:47:18.113Z,1.33
2023-03-15T12:50:35.532Z,1.02
2023-03-15T12:53:31.866Z,1.15
2023-03-15T12:56:33.286Z,0.80
2023-03-15T12:59:41.258Z,0.95
2023-03-15T13:02:42.320Z,0.90
2023-03-15T13:05:45.238Z,0.75
2023-03-15T13:08:57.950Z,0.93
2023-03-15T13:12:10.729Z,0.77
2023-03-15T13:15:18.958Z,1.20
2023-03-15T13:18:20.787Z,0.82
2023-03-15T13:21:32.293Z,0.70
2023-03-15T13:24:26.983Z,0.68
2023-03-15T13:27:31.746Z,1.60
2023-03-15T13:30:32.873Z,0.60
2023-03-15T13:33:25.164Z,0.82
2023-03-15T13:36:20.708Z,0.60
2023-03-15T13:39:17.302Z,0.98
2023-03-15T13:42:17.468Z,0.73
2023-03-15T13:45:09.089Z,0.75
2023-03-15T13:47:54.588Z,1.00
2023-03-15T13:50:40.819Z,0.77
2023-03-15T13:53:43.154Z,0.98
2023-03-15T13:56:48.922Z,0.60
2023-03-15T13:59:39.854Z,1.10
2023-03-15T14:02:55.300Z,1.30
2023-03-15T14:05:50.875Z,1.30
2023-03-15T14:08:39.235Z,1.08
2023-03-15T14:11:24.601Z,0.93
2023-03-15T14:14:26.919Z,1.17
2023-03-15T14:17:50.842Z,1.05
2023-03-15T14:20:45.539Z,1.20
2023-03-15T14:23:32.276Z,0.93
2023-03-15T14:26:28.773Z,1.20
2023-03-15T14:29:25.966Z,0.77
2023-03-15T14:32:27.352Z,0.88
2023-03-15T14:35:31.575Z,1.13
2023-03-15T14:38:24.101Z,1.13
2023-03-15T14:41:28.041Z,0.75
2023-03-15T14:44:13.787Z,0.90
2023-03-15T14:46:59.736Z,0.90
2023-03-15T14:49:46.215Z,0.90
2023-03-15T14:52:33.086Z,2.17
2023-03-15T14:55:21.483Z,0.80
2023-03-15T14:58:33.264Z,0.95
2023-03-15T15:01:24.511Z,1.02
2023-03-15T15:04:12.013Z,1.15
2023-03-15T15:06:57.979Z,1.10
2023-03-15T15:09:48.428Z,0.93
2023-03-15T15:12:33.854Z,0.70
2023-03-15T15:15:21.650Z,0.80
2023-03-15T15:18:07.372Z,1.02
2023-03-15T15:20:55.928Z,1.13
2023-03-15T15:23:57.275Z,0.95
2023-03-15T15:26:44.859Z,1.00
2023-03-15T15:29:30.513Z,1.27
2023-03-15T15:32:16.228Z,1.35
2023-03-15T15:35:02.516Z,1.50
2023-03-15T15:37:50.211Z,1.27
2023-03-15T15:40:37.025Z,1.55
2023-03-15T15:43:22.437Z,1.60
2023-03-15T15:46:11.337Z,1.15
2023-03-15T15:48:56.947Z,0.90
2023-03-15T15:51:49.890Z,1.00
2023-03-15T15:54:36.233Z,2.22
2023-03-15T15:57:22.501Z,1.20
2023-03-15T16:00:14.026Z,1.10
2023-03-15T16:02:59.858Z,1.70
2023-03-15T16:05:45.861Z,1.00
2023-03-15T16:08:37.297Z,1.20
2023-03-15T16:11:23.395Z,1.60
2023-03-15T16:14:11.784Z,1.38
2023-03-15T16:16:56.984Z,1.48
2023-03-15T16:19:42.667Z,0.88
2023-03-15T16:22:29.222Z,1.67
2023-03-15T16:25:19.397Z,1.63
2023-03-15T16:28:07.821Z,1.40
2023-03-15T16:30:53.518Z,1.25
2023-03-15T16:33:39.269Z,1.38
2023-03-15T16:36:27.823Z,1.25
2023-03-15T16:39:15.239Z,2.58
2023-03-15T16:42:00.858Z,1.00
2023-03-15T16:44:46.922Z,1.70
2023-03-15T16:47:32.337Z,1.15
2023-03-15T16:50:18.669Z,1.65
2023-03-15T16:53:07.126Z,1.33
2023-03-15T16:55:52.527Z,1.35
2023-03-15T16:58:38.287Z,1.42
2023-03-15T17:01:26.037Z,1.67
2023-03-15T17:04:13.835Z,2.15
2023-03-15T17:06:59.360Z,1.50
2023-03-15T17:09:47.549Z,2.58
2023-03-15T17:12:34.078Z,1.85
2023-03-15T17:15:23.974Z,1.70
2023-03-15T17:18:18.432Z,1.50
2023-03-15T17:21:05.025Z,1.60
2023-03-15T17:23:52.005Z,1.73
2023-03-15T17:26:39.056Z,1.75
2023-03-15T17:29:26.810Z,1.90
2023-03-15T17:32:13.063Z,2.40
2023-03-15T17:34:59.072Z,3.50
2023-03-15T17:37:45.856Z,2.05
2023-03-15T17:40:33.882Z,3.50
2023-03-15T17:43:20.476Z,2.67
2023-03-15T17:46:06.148Z,2.30
2023-03-15T17:48:51.777Z,2.00
2023-03-15T17:51:38.948Z,2.22
2023-03-15T17:54:27.050Z,2.13
2023-03-15T17:57:12.908Z,1.58
2023-03-15T17:59:58.452Z,2.78
2023-03-15T18:02:49.836Z,1.52
2023-03-15T18:05:40.768Z,2.03
2023-03-15T18:08:26.537Z,2.22
2023-03-15T18:11:27.861Z,1.88
2023-03-15T18:14:18.114Z,2.47
2023-03-15T18:17:07.995Z,2.00
2023-03-15T18:19:53.786Z,2.00
2023-03-15T18:22:42.954Z,2.13
2023-03-15T18:25:33.240Z,2.00
2023-03-15T18:28:18.737Z,1.98
2023-03-15T18:31:05.113Z,1.88
2023-03-15T18:33:53.956Z,2.28
2023-03-15T18:36:39.663Z,2.53
2023-03-15T18:39:28.145Z,2.42
2023-03-15T18:42:15.091Z,2.15
2023-03-15T18:45:00.790Z,1.88
2023-03-15T18:47:47.037Z,2.33
2023-03-15T18:50:33.897Z,3.10
2023-03-15T18:53:19.844Z,2.60
2023-03-15T18:56:06.017Z,2.13
2023-03-15T18:58:52.478Z,1.90
2023-03-15T19:01:38.406Z,2.40
2023-03-15T19:04:23.683Z,2.05
2023-03-15T19:07:09.202Z,2.55
2023-03-15T19:09:55.109Z,2.67
2023-03-15T19:12:41.578Z,2.35
2023-03-15T19:15:26.854Z,1.73
2023-03-15T19:18:12.746Z,2.25
2023-03-15T19:20:58.671Z,2.25
2023-03-15T19:23:44.723Z,1.88
2023-03-15T19:26:30.224Z,2.58
2023-03-15T19:29:15.925Z,3.33
2023-03-15T19:32:01.446Z,3.28
2023-03-15T19:34:47.317Z,2.03
2023-03-15T19:37:32.968Z,2.42
2023-03-15T19:40:19.668Z,2.63
2023-03-15T19:43:05.742Z,2.20
2023-03-15T19:45:51.798Z,1.88
2023-03-15T19:48:37.398Z,2.97
2023-03-15T19:51:23.156Z,2.20
2023-03-15T19:54:08.709Z,2.65
2023-03-15T19:56:54.622Z,1.65
2023-03-15T19:59:41.685Z,2.25
2023-03-15T20:02:27.508Z,1.85
2023-03-15T20:05:17.077Z,1.63
2023-03-15T20:08:03.695Z,1.65
2023-03-15T20:10:59.535Z,1.90
2023-03-15T20:13:45.804Z,3.20
2023-03-15T20:16:31.759Z,2.63
2023-03-15T20:19:17.396Z,2.03
2023-03-15T20:22:03.887Z,2.13
2023-03-15T20:24:50.636Z,2.33
2023-03-15T20:27:37.463Z,1.77
2023-03-15T20:30:23.928Z,2.03
2023-03-15T20:33:10.235Z,1.92
2023-03-15T20:35:55.749Z,2.38
2023-03-15T20:38:41.348Z,2.03
2023-03-15T20:41:27.093Z,1.67
2023-03-15T20:44:12.826Z,2.40
2023-03-15T20:46:59.538Z,1.98
2023-03-15T20:49:53.048Z,1.92
2023-03-15T20:52:49.511Z,1.67
2023-03-15T20:55:35.398Z,2.35
2023-03-15T20:58:21.450Z,2.08
2023-03-15T21:01:09.650Z,2.00
2023-03-15T21:03:57.083Z,1.90
2023-03-15T21:06:42.469Z,1.92
2023-03-15T21:09:28.057Z,2.58
2023-03-15T21:12:13.836Z,3.35
2023-03-15T21:14:59.072Z,2.28
2023-03-15T21:17:53.308Z,1.80
2023-03-15T21:20:40.289Z,2.22
2023-03-15T21:23:31.506Z,1.70
2023-03-15T21:26:17.432Z,2.40
2023-03-15T21:29:03.729Z,2.38
2023-03-15T21:31:49.983Z,2.70
2023-03-15T21:34:35.968Z,2.58
2023-03-15T21:37:21.481Z,2.25
2023-03-15T21:40:07.957Z,2.15
2023-03-15T21:43:07.936Z,2.88
2023-03-15T21:45:54.305Z,2.15
2023-03-15T21:48:41.962Z,2.15
2023-03-15T21:51:34.110Z,2.53
2023-03-15T21:54:19.803Z,2.50
2023-03-15T21:57:05.557Z,2.25
2023-03-15T21:59:51.657Z,2.50
2023-03-15T22:02:38.148Z,2.90
2023-03-15T22:05:23.734Z,2.25
2023-03-15T22:08:09.647Z,2.25
2023-03-15T22:10:57.356Z,2.65
2023-03-15T22:13:43.085Z,2.65
2023-03-15T22:16:28.630Z,2.03
2023-03-15T22:19:14.781Z,2.50
2023-03-15T22:22:01.087Z,2.05
2023-03-15T22:24:46.912Z,3.22
2023-03-15T22:27:32.759Z,2.65
2023-03-15T22:30:19.007Z,2.90
2023-03-15T22:33:05.204Z,2.42
2023-03-15T22:35:58.542Z,3.28
2023-03-15T22:38:50.405Z,3.03
2023-03-15T22:41:39.484Z,3.25
2023-03-15T22:44:25.103Z,2.75
2023-03-15T22:47:11.093Z,2.80
2023-03-15T22:49:59.595Z,2.40
2023-03-15T22:52:45.396Z,2.80
2023-03-15T22:55:33.516Z,3.15
2023-03-15T22:58:19.717Z,3.03
2023-03-15T23:01:05.492Z,3.17
2023-03-15T23:03:55.383Z,2.90
2023-03-15T23:06:41.145Z,2.70
2023-03-15T23:09:26.590Z,3.05
2023-03-15T23:12:12.368Z,2.90
2023-03-15T23:14:58.142Z,2.42
2023-03-15T23:17:46.761Z,2.67
2023-03-15T23:20:33.426Z,3.05
2023-03-15T23:23:19.105Z,2.58
2023-03-15T23:26:13.819Z,3.15
2023-03-15T23:29:13.639Z,2.47
2023-03-15T23:32:00.547Z,2.97
2023-03-15T23:34:46.204Z,3.08
2023-03-15T23:37:33.001Z,2.75
2023-03-15T23:40:20.372Z,3.00
2023-03-15T23:43:09.308Z,2.78
2023-03-15T23:46:07.181Z,3.50
2023-03-15T23:48:53.247Z,2.80
2023-03-15T23:51:38.817Z,2.95
2023-03-15T23:54:24.170Z,3.15
2023-03-15T23:57:12.536Z,2.83
2023-03-15T23:59:58.279Z,2.90
